createdAt,value
2018-07-25T00:01:23.387Z,9.30
2018-07-25T00:03:51.840Z,9.27
2018-07-25T00:06:20.304Z,10.33
2018-07-25T00:08:48.821Z,10.00
2018-07-25T00:11:17.271Z,9.00
2018-07-25T00:13:45.727Z,9.37
2018-07-25T00:16:13.879Z,9.73
2018-07-25T00:18:42.322Z,10.17
2018-07-25T00:21:10.787Z,10.03
2018-07-25T00:23:39.213Z,10.67
2018-07-25T00:26:07.943Z,9.00
2018-07-25T00:28:36.401Z,10.40
2018-07-25T00:31:04.885Z,10.67
2018-07-25T00:33:33.350Z,10.53
2018-07-25T00:36:01.830Z,10.40
2018-07-25T00:38:30.263Z,10.10
2018-07-25T00:40:58.689Z,9.37
2018-07-25T00:43:27.142Z,9.50
2018-07-25T00:45:55.574Z,11.10
2018-07-25T00:48:24.047Z,9.33
2018-07-25T00:50:52.697Z,10.50
2018-07-25T00:53:21.133Z,9.50
2018-07-25T00:55:49.248Z,11.20
2018-07-25T00:58:17.702Z,10.77
2018-07-25T01:00:46.201Z,10.43
2018-07-25T01:03:14.724Z,10.80
2018-07-25T01:05:43.141Z,10.73
2018-07-25T01:08:11.634Z,9.50
2018-07-25T01:10:41.833Z,10.00
2018-07-25T01:13:11.324Z,10.07
2018-07-25T01:15:39.761Z,10.30
2018-07-25T01:18:08.518Z,10.00
2018-07-25T01:20:36.949Z,9.00
2018-07-25T01:23:05.451Z,10.30
2018-07-25T01:25:34.098Z,9.67
2018-07-25T01:28:02.542Z,9.80
2018-07-25T01:30:31.462Z,10.30
2018-07-25T01:32:59.933Z,9.50
2018-07-25T01:35:28.358Z,9.93
2018-07-25T01:37:56.800Z,8.93
2018-07-25T01:40:25.241Z,9.43
2018-07-25T01:42:53.721Z,9.80
2018-07-25T01:45:22.380Z,8.93
2018-07-25T01:47:50.869Z,9.30
2018-07-25T01:50:19.305Z,9.20
2018-07-25T01:52:47.760Z,9.13
2018-07-25T01:55:16.211Z,9.50
2018-07-25T01:57:44.685Z,9.63
2018-07-25T02:00:13.142Z,9.23
2018-07-25T02:02:41.849Z,9.33
2018-07-25T02:05:10.501Z,9.97
2018-07-25T02:07:38.637Z,10.20
2018-07-25T02:10:07.126Z,9.90
2018-07-25T02:12:35.629Z,10.60
2018-07-25T02:15:04.592Z,9.73
2018-07-25T02:17:33.050Z,10.23
2018-07-25T02:20:01.514Z,10.60
2018-07-25T02:22:29.998Z,9.60
2018-07-25T02:24:58.429Z,9.20
2018-07-25T02:27:26.845Z,9.87
2018-07-25T02:29:55.336Z,10.40
2018-07-25T02:32:23.773Z,10.47
2018-07-25T02:34:52.221Z,9.70
2018-07-25T02:37:20.653Z,10.27
2018-07-25T02:39:49.338Z,9.67
2018-07-25T02:42:17.820Z,9.90
2018-07-25T02:44:46.286Z,10.83
2018-07-25T02:47:14.730Z,10.40
2018-07-25T02:49:46.445Z,11.83
2018-07-25T02:52:14.909Z,10.60
2018-07-25T02:54:43.441Z,10.30
2018-07-25T02:57:11.892Z,10.50
2018-07-25T02:59:40.065Z,11.10
2018-07-25T03:02:08.553Z,10.10
2018-07-25T03:04:36.983Z,10.73
2018-07-25T03:07:05.445Z,11.03
2018-07-25T03:09:40.997Z,10.47
2018-07-25T03:12:09.517Z,11.27
2018-07-25T03:14:37.958Z,10.40
2018-07-25T03:17:06.412Z,10.20
2018-07-25T03:19:36.226Z,10.17
2018-07-25T03:22:04.374Z,10.10
2018-07-25T03:24:32.814Z,10.23
2018-07-25T03:27:01.265Z,10.50
2018-07-25T03:29:29.458Z,11.20
2018-07-25T03:31:57.917Z,10.57
2018-07-25T03:34:26.095Z,11.30
2018-07-25T03:36:54.241Z,9.67
2018-07-25T03:39:22.665Z,10.40
2018-07-25T03:41:51.098Z,10.20
2018-07-25T03:44:19.864Z,10.80
2018-07-25T03:46:48.283Z,11.70
2018-07-25T03:49:16.741Z,11.70
2018-07-25T03:51:45.188Z,11.87
2018-07-25T03:54:13.629Z,10.20
2018-07-25T03:56:42.092Z,12.00
2018-07-25T03:59:10.758Z,13.30
2018-07-25T04:01:39.297Z,13.00
2018-07-25T04:04:07.746Z,12.50
2018-07-25T04:06:36.205Z,12.37
2018-07-25T04:09:07.695Z,13.20
2018-07-25T04:11:36.203Z,12.87
2018-07-25T04:14:04.642Z,13.80
2018-07-25T04:16:33.103Z,13.93
2018-07-25T04:19:01.551Z,14.57
2018-07-25T04:21:29.997Z,13.67
2018-07-25T04:23:58.705Z,14.40
2018-07-25T04:26:27.161Z,13.13
2018-07-25T04:28:55.605Z,13.60
2018-07-25T04:31:24.018Z,14.03
2018-07-25T04:33:52.517Z,14.17
2018-07-25T04:36:20.914Z,15.30
2018-07-25T04:38:49.382Z,13.73
2018-07-25T04:41:17.569Z,14.10
2018-07-25T04:43:46.021Z,13.17
2018-07-25T04:46:14.547Z,12.53
2018-07-25T04:48:42.905Z,13.87
2018-07-25T04:51:11.352Z,12.30
2018-07-25T04:53:39.807Z,12.30
2018-07-25T04:56:08.270Z,13.20
2018-07-25T04:58:36.789Z,12.50
2018-07-25T05:01:05.232Z,12.30
2018-07-25T05:03:33.928Z,12.03
2018-07-25T05:06:02.377Z,13.63
2018-07-25T05:08:30.525Z,12.97
2018-07-25T05:10:58.958Z,11.37
2018-07-25T05:13:28.150Z,11.90
2018-07-25T05:15:56.589Z,11.50
2018-07-25T05:18:25.021Z,11.27
2018-07-25T05:20:53.466Z,11.13
2018-07-25T05:23:22.149Z,11.63
2018-07-25T05:25:50.625Z,11.00
2018-07-25T05:28:20.070Z,11.37
2018-07-25T05:30:48.173Z,12.17
2018-07-25T05:33:16.649Z,10.83
2018-07-25T05:35:45.097Z,10.63
2018-07-25T05:38:13.627Z,11.53
2018-07-25T05:40:41.688Z,10.77
2018-07-25T05:43:10.353Z,10.83
2018-07-25T05:45:38.818Z,11.40
2018-07-25T05:48:08.201Z,10.60
2018-07-25T05:50:36.652Z,10.90
2018-07-25T05:53:05.139Z,10.77
2018-07-25T05:55:34.041Z,10.90
2018-07-25T05:58:02.492Z,11.17
2018-07-25T06:00:31.805Z,11.50
2018-07-25T06:03:00.900Z,11.90
2018-07-25T06:05:29.265Z,12.10
2018-07-25T06:07:57.713Z,12.30
2018-07-25T06:10:26.180Z,11.30
2018-07-25T06:12:54.962Z,10.90
2018-07-25T06:15:23.411Z,11.90
2018-07-25T06:17:51.865Z,10.80
2018-07-25T06:20:20.376Z,11.80
2018-07-25T06:22:48.894Z,11.80
2018-07-25T06:25:17.727Z,11.20
2018-07-25T06:27:46.601Z,10.83
2018-07-25T06:30:14.724Z,11.13
2018-07-25T06:32:43.176Z,12.17
2018-07-25T06:35:11.913Z,12.00
2018-07-25T06:37:40.394Z,11.80
2018-07-25T06:40:08.844Z,11.53
2018-07-25T06:42:37.326Z,9.97
2018-07-25T06:45:06.954Z,10.90
2018-07-25T06:47:35.581Z,10.80
2018-07-25T06:50:04.806Z,11.47
2018-07-25T06:52:33.353Z,9.40
2018-07-25T06:55:02.050Z,10.47
2018-07-25T06:57:30.477Z,9.40
2018-07-25T06:59:58.937Z,9.70
2018-07-25T07:02:27.922Z,10.17
2018-07-25T07:04:56.416Z,9.07
2018-07-25T07:07:24.857Z,9.70
2018-07-25T07:09:53.274Z,9.07
2018-07-25T07:12:21.985Z,9.90
2018-07-25T07:14:50.432Z,10.20
2018-07-25T07:17:18.903Z,9.17
2018-07-25T07:19:47.341Z,9.30
2018-07-25T07:22:15.767Z,9.60
2018-07-25T07:24:43.878Z,8.60
2018-07-25T07:27:12.596Z,9.77
2018-07-25T07:29:41.074Z,10.73
2018-07-25T07:32:09.518Z,9.37
2018-07-25T07:34:37.949Z,8.70
2018-07-25T07:37:06.406Z,9.30
2018-07-25T07:39:34.843Z,10.03
2018-07-25T07:42:03.306Z,9.50
2018-07-25T07:44:31.770Z,8.40
2018-07-25T07:47:00.229Z,9.23
2018-07-25T07:49:28.657Z,8.93
2018-07-25T07:51:57.177Z,8.20
2018-07-25T07:54:25.629Z,9.63
2018-07-25T07:56:53.993Z,8.87
2018-07-25T07:59:23.121Z,9.03
2018-07-25T08:01:51.886Z,9.53
2018-07-25T08:04:20.391Z,8.47
2018-07-25T08:06:48.902Z,9.07
2018-07-25T08:09:17.326Z,7.90
2018-07-25T08:11:46.987Z,8.97
2018-07-25T08:14:15.410Z,9.00
2018-07-25T08:16:43.822Z,9.07
2018-07-25T08:19:12.350Z,8.73
2018-07-25T08:21:40.788Z,9.20
2018-07-25T08:24:09.321Z,9.10
2018-07-25T08:26:37.877Z,8.30
2018-07-25T08:29:06.358Z,9.00
2018-07-25T08:31:34.809Z,8.73
2018-07-25T08:34:03.350Z,10.50
2018-07-25T08:36:31.814Z,8.90
2018-07-25T08:39:00.228Z,9.60
2018-07-25T08:41:28.684Z,9.20
2018-07-25T08:43:57.136Z,9.47
2018-07-25T08:46:25.573Z,8.40
2018-07-25T08:48:54.009Z,9.60
2018-07-25T08:51:22.449Z,9.63
2018-07-25T08:53:50.926Z,9.90
2018-07-25T08:56:19.362Z,9.53
2018-07-25T08:58:47.770Z,9.90
2018-07-25T09:01:16.224Z,9.57
2018-07-25T09:03:44.357Z,8.77
2018-07-25T09:06:12.814Z,9.70
2018-07-25T09:08:41.245Z,10.40
2018-07-25T09:11:09.679Z,9.20
2018-07-25T09:13:38.111Z,10.10
2018-07-25T09:16:06.549Z,9.53
2018-07-25T09:18:34.725Z,9.77
2018-07-25T09:21:03.260Z,10.60
2018-07-25T09:23:31.726Z,9.50
2018-07-25T09:26:00.448Z,10.00
2018-07-25T09:28:29.135Z,9.03
2018-07-25T09:30:57.633Z,10.20
2018-07-25T09:33:26.110Z,9.20
2018-07-25T09:35:57.144Z,9.10
2018-07-25T09:38:25.605Z,9.93
2018-07-25T09:41:01.240Z,9.23
2018-07-25T09:43:29.702Z,9.20
2018-07-25T09:45:58.233Z,9.40
2018-07-25T09:48:26.970Z,10.20
2018-07-25T09:51:20.910Z,10.20
2018-07-25T09:53:54.796Z,9.37
2018-07-25T09:56:23.365Z,9.37
2018-07-25T09:58:51.921Z,9.90
2018-07-25T10:01:20.275Z,11.00
2018-07-25T10:03:48.749Z,9.90
2018-07-25T10:06:17.225Z,10.33
2018-07-25T10:08:47.334Z,8.80
2018-07-25T10:11:15.830Z,10.60
2018-07-25T10:13:44.298Z,10.10
2018-07-25T10:16:12.796Z,10.40
2018-07-25T10:18:41.261Z,10.23
2018-07-25T10:21:09.729Z,9.40
2018-07-25T10:23:38.161Z,9.40
2018-07-25T10:26:06.286Z,9.97
2018-07-25T10:28:34.764Z,9.50
2018-07-25T10:31:03.202Z,8.37
2018-07-25T10:33:31.671Z,9.40
2018-07-25T10:36:00.159Z,9.13
2018-07-25T10:38:28.596Z,8.50
2018-07-25T10:40:57.014Z,9.90
2018-07-25T10:43:25.943Z,9.63
2018-07-25T10:45:54.430Z,8.87
2018-07-25T10:48:23.101Z,7.50
2018-07-25T10:50:51.558Z,6.47
2018-07-25T10:53:20.060Z,6.90
2018-07-25T10:55:48.213Z,6.40
2018-07-25T10:58:16.625Z,7.20
2018-07-25T11:00:45.050Z,7.73
2018-07-25T11:03:13.758Z,8.70
2018-07-25T11:05:42.308Z,7.93
2018-07-25T11:08:10.758Z,7.47
2018-07-25T11:10:39.210Z,8.30
2018-07-25T11:13:07.644Z,8.37
2018-07-25T11:15:36.145Z,8.90
2018-07-25T11:18:04.920Z,6.63
2018-07-25T11:20:33.361Z,6.50
2018-07-25T11:23:01.509Z,7.10
2018-07-25T11:25:29.930Z,7.40
2018-07-25T11:27:58.074Z,8.40
2018-07-25T11:30:26.529Z,8.80
2018-07-25T11:32:55.251Z,7.90
2018-07-25T11:35:23.662Z,7.20
2018-07-25T11:37:51.768Z,7.60
2018-07-25T11:40:20.229Z,7.70
2018-07-25T11:42:48.673Z,6.27
2018-07-25T11:45:17.109Z,7.97
2018-07-25T11:47:45.550Z,7.13
2018-07-25T11:50:14.051Z,7.43
2018-07-25T11:52:42.466Z,6.90
2018-07-25T11:55:10.900Z,6.93
2018-07-25T11:57:39.334Z,6.70
2018-07-25T12:00:07.923Z,7.63
2018-07-25T12:02:36.371Z,8.03
2018-07-25T12:05:04.854Z,8.23
2018-07-25T12:07:33.525Z,7.23
2018-07-25T12:10:02.003Z,6.77
2018-07-25T12:12:30.534Z,7.60
2018-07-25T12:14:59.272Z,7.47
2018-07-25T12:17:27.709Z,7.50
2018-07-25T12:19:56.177Z,6.80
2018-07-25T12:22:24.623Z,6.80
2018-07-25T12:24:53.033Z,6.83
2018-07-25T12:27:21.484Z,6.80
2018-07-25T12:29:50.157Z,6.67
2018-07-25T12:32:18.713Z,6.20
2018-07-25T12:34:47.165Z,6.73
2018-07-25T12:37:15.637Z,6.77
2018-07-25T12:39:44.220Z,6.27
2018-07-25T12:42:12.655Z,6.63
2018-07-25T12:44:40.813Z,6.47
2018-07-25T12:47:09.337Z,6.37
2018-07-25T12:49:37.822Z,6.70
2018-07-25T12:52:06.423Z,7.70
2018-07-25T12:54:34.902Z,7.30
2018-07-25T12:57:03.373Z,6.57
2018-07-25T12:59:31.851Z,6.20
2018-07-25T13:02:00.358Z,6.33
2018-07-25T13:04:28.759Z,6.33
2018-07-25T13:06:57.217Z,5.87
2018-07-25T13:09:25.711Z,5.33
2018-07-25T13:11:54.188Z,6.20
2018-07-25T13:14:22.686Z,5.87
2018-07-25T13:16:51.138Z,6.23
2018-07-25T13:19:19.605Z,6.87
2018-07-25T13:21:48.075Z,6.33
2018-07-25T13:24:16.523Z,7.80
2018-07-25T13:26:45.029Z,6.43
2018-07-25T13:29:13.490Z,7.03
2018-07-25T13:31:42.105Z,7.60
2018-07-25T13:34:10.557Z,7.47
2018-07-25T13:36:39.008Z,7.10
2018-07-25T13:39:08.265Z,6.73
2018-07-25T13:41:36.759Z,7.70
2018-07-25T13:44:05.442Z,7.77
2018-07-25T13:46:33.917Z,7.53
2018-07-25T13:49:02.384Z,7.60
2018-07-25T13:51:30.905Z,7.77
2018-07-25T13:53:59.554Z,7.63
2018-07-25T13:56:28.034Z,6.23
2018-07-25T13:58:56.157Z,7.10
2018-07-25T14:01:24.834Z,7.10
2018-07-25T14:03:53.313Z,6.47
2018-07-25T14:06:21.747Z,6.50
2018-07-25T14:08:50.212Z,6.10
2018-07-25T14:11:18.675Z,6.20
2018-07-25T14:13:47.217Z,5.93
2018-07-25T14:16:15.694Z,6.93
2018-07-25T14:18:43.857Z,6.40
2018-07-25T14:21:12.317Z,7.70
2018-07-25T14:23:40.816Z,7.30
2018-07-25T14:26:09.244Z,7.37
2018-07-25T14:28:37.728Z,6.30
2018-07-25T14:31:06.189Z,7.60
2018-07-25T14:33:36.713Z,7.30
2018-07-25T14:36:05.422Z,7.13
2018-07-25T14:38:33.934Z,7.33
2018-07-25T14:41:02.421Z,6.83
2018-07-25T14:43:30.904Z,7.70
2018-07-25T14:45:59.346Z,7.10
2018-07-25T14:48:27.818Z,9.33
2018-07-25T14:50:56.273Z,7.03
2018-07-25T14:53:24.770Z,7.10
2018-07-25T14:55:53.269Z,6.70
2018-07-25T14:58:21.746Z,7.00
2018-07-25T15:00:50.249Z,5.07
2018-07-25T15:03:19.329Z,6.23
2018-07-25T15:05:48.015Z,6.00
2018-07-25T15:08:16.713Z,6.10
2018-07-25T15:10:45.181Z,5.93
2018-07-25T15:13:13.418Z,5.23
2018-07-25T15:15:41.826Z,5.43
2018-07-25T15:18:09.974Z,4.90
2018-07-25T15:20:38.451Z,4.90
2018-07-25T15:23:06.941Z,5.03
2018-07-25T15:25:35.640Z,5.50
2018-07-25T15:28:04.153Z,5.43
2018-07-25T15:30:32.598Z,4.90
2018-07-25T15:33:01.099Z,5.00
2018-07-25T15:35:30.245Z,5.20
2018-07-25T15:37:58.969Z,5.57
2018-07-25T15:40:27.788Z,5.47
2018-07-25T15:42:56.562Z,5.67
2018-07-25T15:45:25.443Z,5.50
2018-07-25T15:47:53.921Z,6.43
2018-07-25T15:50:23.951Z,6.40
2018-07-25T15:52:52.190Z,6.73
2018-07-25T15:55:20.701Z,6.60
2018-07-25T15:57:49.221Z,6.43
2018-07-25T16:00:17.786Z,6.30
2018-07-25T16:02:47.270Z,6.30
2018-07-25T16:05:15.981Z,9.10
2018-07-25T16:07:44.989Z,6.50
2018-07-25T16:10:13.614Z,6.60
2018-07-25T16:12:42.234Z,7.10
2018-07-25T16:15:10.368Z,6.70
2018-07-25T16:17:38.810Z,6.77
2018-07-25T16:20:07.271Z,7.47
2018-07-25T16:22:35.734Z,6.40
2018-07-25T16:25:04.347Z,6.40
2018-07-25T16:27:32.833Z,7.33
2018-07-25T16:30:01.258Z,6.60
2018-07-25T16:32:29.751Z,7.23
2018-07-25T16:34:58.246Z,7.67
2018-07-25T16:37:26.943Z,7.40
2018-07-25T16:39:55.422Z,7.43
2018-07-25T16:42:23.881Z,7.17
2018-07-25T16:44:52.413Z,7.53
2018-07-25T16:47:20.861Z,7.80
2018-07-25T16:49:49.717Z,7.00
2018-07-25T16:52:18.198Z,8.00
2018-07-25T16:54:46.761Z,6.60
2018-07-25T16:57:15.210Z,7.17
2018-07-25T16:59:43.698Z,7.70
2018-07-25T17:02:12.489Z,6.63
2018-07-25T17:04:41.305Z,7.10
2018-07-25T17:07:09.857Z,7.07
2018-07-25T17:09:38.373Z,7.00
2018-07-25T17:12:06.929Z,7.27
2018-07-25T17:14:35.411Z,7.23
2018-07-25T17:17:03.857Z,6.80
2018-07-25T17:19:32.347Z,7.13
2018-07-25T17:22:01.477Z,7.20
2018-07-25T17:24:30.769Z,6.97
2018-07-25T17:26:59.230Z,7.43
2018-07-25T17:29:28.476Z,7.93
2018-07-25T17:31:56.961Z,7.00
2018-07-25T17:34:25.438Z,7.57
2018-07-25T17:36:53.887Z,7.70
2018-07-25T17:39:22.379Z,6.77
2018-07-25T17:41:50.835Z,7.13
2018-07-25T17:44:19.270Z,7.57
2018-07-25T17:46:48.001Z,7.20
2018-07-25T17:49:16.431Z,7.53
2018-07-25T17:51:44.893Z,7.40
2018-07-25T17:54:13.362Z,6.97
2018-07-25T17:56:41.887Z,8.10
2018-07-25T17:59:10.366Z,8.33
2018-07-25T18:01:38.847Z,7.67
2018-07-25T18:04:07.368Z,7.20
2018-07-25T18:06:35.883Z,6.70
2018-07-25T18:09:06.638Z,7.30
2018-07-25T18:11:34.777Z,8.10
2018-07-25T18:14:08.673Z,7.20
2018-07-25T18:16:37.158Z,7.83
2018-07-25T18:19:05.670Z,7.17
2018-07-25T18:21:33.895Z,8.10
2018-07-25T18:24:03.216Z,7.60
2018-07-25T18:26:31.705Z,7.53
2018-07-25T18:29:00.200Z,7.23
2018-07-25T18:31:28.693Z,8.20
2018-07-25T18:33:57.237Z,8.23
2018-07-25T18:36:25.782Z,7.10
2018-07-25T18:38:54.489Z,8.47
2018-07-25T18:41:22.934Z,7.90
2018-07-25T18:43:51.485Z,8.37
2018-07-25T18:46:19.953Z,8.37
2018-07-25T18:48:48.431Z,7.80
2018-07-25T18:51:16.929Z,8.07
2018-07-25T18:53:46.364Z,7.97
2018-07-25T18:56:14.926Z,7.87
2018-07-25T18:58:47.450Z,8.70
2018-07-25T19:01:16.238Z,7.10
2018-07-25T19:03:44.807Z,7.67
2018-07-25T19:06:32.331Z,8.03
2018-07-25T19:09:00.826Z,7.70
2018-07-25T19:11:28.973Z,7.97
2018-07-25T19:14:02.741Z,7.63
2018-07-25T19:16:31.234Z,7.73
2018-07-25T19:18:59.693Z,6.80
2018-07-25T19:21:28.526Z,7.37
2018-07-25T19:23:57.082Z,6.70
2018-07-25T19:26:25.458Z,8.30
2018-07-25T19:28:53.898Z,6.47
2018-07-25T19:31:22.053Z,6.50
2018-07-25T19:33:50.501Z,6.67
2018-07-25T19:36:19.034Z,7.13
2018-07-25T19:38:47.454Z,6.53
2018-07-25T19:41:15.921Z,6.97
2018-07-25T19:43:44.030Z,6.73
2018-07-25T19:46:12.492Z,6.40
2018-07-25T19:48:40.928Z,6.87
2018-07-25T19:51:09.366Z,5.93
2018-07-25T19:53:37.901Z,6.60
2018-07-25T19:56:06.362Z,6.97
2018-07-25T19:58:34.843Z,7.40
2018-07-25T20:01:03.326Z,6.53
2018-07-25T20:03:31.780Z,7.33
2018-07-25T20:06:00.233Z,7.03
2018-07-25T20:08:28.718Z,6.80
2018-07-25T20:10:58.150Z,7.03
2018-07-25T20:13:29.400Z,7.03
2018-07-25T20:15:59.453Z,6.87
2018-07-25T20:18:28.867Z,7.70
2018-07-25T20:20:57.422Z,6.47
2018-07-25T20:23:26.897Z,7.10
2018-07-25T20:25:55.030Z,6.93
2018-07-25T20:28:23.486Z,6.27
2018-07-25T20:30:52.090Z,6.80
2018-07-25T20:33:20.544Z,7.17
2018-07-25T20:35:49.023Z,7.90
2018-07-25T20:38:18.757Z,7.50
2018-07-25T20:40:47.617Z,7.47
2018-07-25T20:43:16.106Z,7.60
2018-07-25T20:45:44.981Z,7.40
2018-07-25T20:48:13.465Z,7.23
2018-07-25T20:50:41.919Z,7.10
2018-07-25T20:53:10.169Z,7.30
2018-07-25T20:55:41.546Z,7.20
2018-07-25T20:58:10.204Z,7.97
2018-07-25T21:00:38.694Z,7.23
2018-07-25T21:03:12.325Z,7.93
2018-07-25T21:05:40.786Z,7.73
2018-07-25T21:08:10.068Z,7.00
2018-07-25T21:10:38.594Z,7.30
2018-07-25T21:13:06.917Z,7.70
2018-07-25T21:15:35.394Z,6.87
2018-07-25T21:18:04.082Z,6.80
2018-07-25T21:20:32.528Z,7.13
2018-07-25T21:23:01.902Z,7.30
2018-07-25T21:25:31.302Z,7.17
2018-07-25T21:28:03.501Z,7.77
2018-07-25T21:30:35.730Z,7.80
2018-07-25T21:33:04.191Z,7.87
2018-07-25T21:35:32.629Z,7.33
2018-07-25T21:38:02.214Z,7.70
2018-07-25T21:40:30.687Z,7.00
2018-07-25T21:43:00.703Z,7.77
2018-07-25T21:45:29.187Z,7.57
2018-07-25T21:47:57.741Z,7.30
2018-07-25T21:50:26.189Z,8.30
2018-07-25T21:52:54.779Z,7.20
2018-07-25T21:55:23.317Z,7.80
2018-07-25T21:57:51.749Z,7.77
2018-07-25T22:00:20.257Z,7.63
2018-07-25T22:02:48.745Z,8.13
2018-07-25T22:05:17.267Z,8.20
2018-07-25T22:07:46.411Z,9.10
2018-07-25T22:10:15.578Z,8.30
2018-07-25T22:12:44.158Z,8.53
2018-07-25T22:15:12.866Z,8.27
2018-07-25T22:17:41.410Z,7.53
2018-07-25T22:20:11.877Z,8.50
2018-07-25T22:22:40.595Z,8.67
2018-07-25T22:25:09.832Z,8.33
2018-07-25T22:27:39.141Z,7.53
2018-07-25T22:30:07.917Z,8.30
2018-07-25T22:32:36.384Z,7.50
2018-07-25T22:35:04.890Z,8.00
2018-07-25T22:37:33.437Z,8.47
2018-07-25T22:40:01.853Z,8.03
2018-07-25T22:42:30.279Z,8.37
2018-07-25T22:44:58.717Z,8.30
2018-07-25T22:47:27.200Z,8.00
2018-07-25T22:49:55.654Z,7.80
2018-07-25T22:52:24.101Z,8.23
2018-07-25T22:54:52.565Z,7.30
2018-07-25T22:57:21.006Z,7.20
2018-07-25T22:59:49.433Z,7.53
2018-07-25T23:02:17.877Z,7.67
2018-07-25T23:04:46.322Z,6.90
2018-07-25T23:07:14.806Z,8.20
2018-07-25T23:09:43.320Z,7.63
2018-07-25T23:12:12.028Z,7.80
2018-07-25T23:14:40.562Z,8.03
2018-07-25T23:17:08.985Z,7.63
2018-07-25T23:19:37.475Z,7.07
2018-07-25T23:22:05.978Z,7.67
2018-07-25T23:24:34.429Z,7.47
2018-07-25T23:27:02.926Z,7.30
2018-07-25T23:29:31.560Z,7.37
2018-07-25T23:31:59.963Z,7.33
2018-07-25T23:34:28.653Z,7.13
2018-07-25T23:36:57.345Z,7.37
2018-07-25T23:39:25.862Z,7.20
2018-07-25T23:41:54.324Z,8.10
2018-07-25T23:44:22.749Z,7.27
2018-07-25T23:46:51.229Z,8.07
2018-07-25T23:49:19.685Z,7.60
2018-07-25T23:51:48.122Z,7.63
2018-07-25T23:54:16.580Z,7.30
2018-07-25T23:56:45.041Z,8.33
2018-07-25T23:59:13.485Z,8.10
